Airfield :
LOGIN :

Register | Disclaimer

   EN    FR    IT 

 










Legend :    VFR   Marginal VFR   IFR   Intensive IFR   Very Intensive IFR
Visi :
Ceiling :
>= 8 km
>= 3000ft
5 to 8 km
1000 to 3000 ft
1500m to 5 km
500 to 1000 ft
800 to 1500m
200 to 500 ft
< 800m
< 200 ft
Symbols :   Thunderstorms  Fog  Heavy snow  Heavy precipitations  Wind > 20 kt
SIGMETs :     Misc.  Thunderstorms  Icing  Turbulence  Mountain Waves  Volcanic Ashes







- Airport Elevation : 726 ft
- IATA code : DIJ
- Download approach charts


LFSD - Dijon

CURRENT METAR :
  • 141830Z AUTO 22010KT 9999 FEW023/// BKN064/// BKN074/// ///TCU 06/04 Q0999

EXPIRED METARs :
  • 141800Z AUTO 23010KT 9999 -RA FEW026/// BKN037/// BKN048/// ///CB 06/04 Q0999
  • 141730Z AUTO 21008KT 9999 FEW043/// BKN050/// BKN074/// ///CB 06/04 Q0999
  • 141700Z AUTO 22013KT 9999 -RA FEW026/// SCT038/// BKN044/// ///TCU 06/04 Q0999
  • 141630Z AUTO 22015KT 9999 -RA FEW022/// SCT050/// OVC072/// ///CB 06/04 Q1000
  • 141600Z AUTO 20011KT 9999 -RA SCT036/// BKN046/// BKN056/// ///CB 06/05 Q1000

Expired Forecast.
No reported NOTAMs for that airfield.
2 SIGMETs reported for the Reims FIR (LFEE) :
 
Severe turbulence
LFEE SIGMET 6 VALID 141700/142000 LFPW
LFEE REIMS FIR/UIR SEV TURB OBS AT 1700Z S OF N4800 FL160/300 STNR NC=
Severe turbulence
LFEE SIGMET 5 VALID 141800/142100 LFPW
LFEE REIMS FIR/UIR SEV TURB FCST WI N4815 E00800 - N4730 E00730 - N4630 E00615 - N4630 E00545 - N4715 E00530 - N4815 E00800 SFC/FL070 STNR INTSF=



MET'MAP, your aeronautical weather chart ! - Copyright ORBIFLY December 2007 - Disclaimer

ORBIFLY MET'MAP TEAM :

Programming & Development : Alexandra Zaïnal
Concept & Development : Baudouin d'Aumeries
Co-Development & Prog : Marc-Olivier Méhu
Technical & hardware support : Manuel Goepfert

Contact : metmap@orbifly.com




SOURCES & CREDITS :

   NOAA